Provincetown III — WDB8185 — position and weather

sailwx.info

Track history (hours):
 
Tides and Currents Weather Stations Pressure Air Temp Water Temp Dewpoint Dewpoint Depression Visibility Wind Speed Wind Dir Waves Ship Positions

Provincetown III

Owner: MYSTIC FERRY LEASING LLC, BOSTON, MA. More information available from US FCC via Universal Licensing System and Coast Guard Vessel Documentation Center.

Last reported at 2014-Oct-22 15:33 UTC. Time now 2014-Oct-25 17:40 UTC.
Position N 27°04' W 079°54'.

Length 30 m; draft 2 m.

Type: Passenger vessel. MMSI: 366954420.

Date/timePositionNaut miles runAvg speedWind from/ knotsBaromVisibWave heightAir tempDewpointWater temp
2014-Oct-22 15:33N 27°04' W 079°54'47419.8
2014-Oct-21 15:33N 34°30' W 076°46'1413.7
2014-Oct-21 14:33N 34°43' W 076°42'0 0.0
2014-Oct-21 13:33N 34°43' W 076°42'0 0.0
2014-Oct-21 12:33N 34°43' W 076°42'1 1.2
2014-Oct-21 11:33N 34°42' W 076°41'36218.7
2014-Oct-20 16:11N 40°00' W 073°03'1624.7
2014-Oct-20 15:32N 40°12' W 072°49'2424.5
2014-Oct-20 14:33N 40°28' W 072°25'2424.5
2014-Oct-20 13:34N 40°46' W 072°03'2524.6
2014-Oct-20 12:34N 41°02' W 071°39'2424.5
2014-Oct-20 11:33N 41°18' W 071°14'2421.7
2014-Oct-20 10:28N 41°36' W 070°53'  
Track history (hours):
 
Tides and Currents Weather Stations Pressure Air Temp Water Temp Dewpoint Dewpoint Depression Visibility Wind Speed Wind Dir Waves Ship Positions

Provincetown III

Owner: MYSTIC FERRY LEASING LLC, BOSTON, MA. More information available from US FCC via Universal Licensing System and Coast Guard Vessel Documentation Center.

Last reported at 2014-Oct-22 15:33 UTC. Time now 2014-Oct-25 17:40 UTC.
Position N 27°04' W 079°54'.

Length 30 m; draft 2 m.

Type: Passenger vessel. MMSI: 366954420.

Date/timePositionNaut miles runAvg speedWind from/ knotsBaromVisibWave heightAir tempDewpointWater temp
2014-Oct-22 15:33N 27°04' W 079°54'47419.8
2014-Oct-21 15:33N 34°30' W 076°46'1413.7
2014-Oct-21 14:33N 34°43' W 076°42'0 0.0
2014-Oct-21 13:33N 34°43' W 076°42'0 0.0
2014-Oct-21 12:33N 34°43' W 076°42'1 1.2
2014-Oct-21 11:33N 34°42' W 076°41'36218.7
2014-Oct-20 16:11N 40°00' W 073°03'1624.7
2014-Oct-20 15:32N 40°12' W 072°49'2424.5
2014-Oct-20 14:33N 40°28' W 072°25'2424.5
2014-Oct-20 13:34N 40°46' W 072°03'2524.6
2014-Oct-20 12:34N 41°02' W 071°39'2424.5
2014-Oct-20 11:33N 41°18' W 071°14'2421.7
2014-Oct-20 10:28N 41°36' W 070°53'  

Dump ship's entire track history